Nearby METAR Reports

 

EGNM - Leeds And Bradford, United Kingdom
Distance from station: N 11mi, 18km
Updated: 14/07/2020 05:50
Few Clouds
Few Clouds
 Wind from W
Wind: W 14 mph , 22 km/h
Temperature: 10°C
Wind Chill: 7°C
Dew Point: 8°C
Humidity: 88%
Barometer: 1017 hPa
Clouds: Few Clouds
Visibility: 6 miles , 10 km
Cloud details: Few Clouds 1219 m
2020/07/14 05:50 EGNM 140550Z 28012KT 9999 FEW040 10/08 Q1017
EGXU - Linton-On-Ouse, United Kingdom
Distance from station: NNE 28mi, 45km
Updated: 14/07/2020 04:50
Partly cloudy
Partly cloudy
 Wind from WNW
Wind: WNW 2 mph , 4 km/h
Temperature: 10°C
Dew Point: 9°C
Humidity: 94%
Barometer: 1016 hPa
Clouds: Partly cloudy
Visibility: 6 miles , 10 km
Cloud details: Partly cloudy 975 m
2020/07/14 04:50 EGXU 140450Z AUTO 29002KT 9999 SCT032/// 10/09 Q1016
 
EGCN - Doncaster Sheffield, United Kingdom
Distance from station: ESE 30mi, 45km
Updated: 14/07/2020 05:50
Partly cloudy
Partly cloudy
 Wind from W
Wind: W 12 mph , 19 km/h
Temperature: 14°C
Dew Point: 8°C
Humidity: 67%
Barometer: 1018 hPa
Clouds: Partly cloudy
Visibility: 6 miles , 10 km
Cloud details: Partly cloudy 1311 m
2020/07/14 05:50 EGCN 140550Z 27010KT 9999 SCT043 14/08 Q1018
EGXZ - Topcliffe RAF, United Kingdom
Distance from station: NNE 36mi, 57km
Updated: 14/07/2020 05:50
Partly cloudy
Partly cloudy
 Wind from W
Wind: W 5 mph , 7 km/h
Temperature: 12°C
Dew Point: 9°C
Humidity: 82%
Barometer: 1016 hPa
Clouds: Partly cloudy
Visibility: 6 miles , 10 km
Cloud details: Partly cloudy 823 m
2020/07/14 05:50 EGXZ 140550Z AUTO 27004KT 9999 SCT027/// 12/09 Q1016
 
EGCC - Manchester Intl, United Kingdom
Distance from station: SW 36mi, 58km
Updated: 14/07/2020 05:50
Overcast
Overcast
 Wind from WNW
Wind: WNW 5 mph , 7 km/h
Temperature: 13°C
Dew Point: 10°C
Humidity: 82%
Barometer: 1018 hPa
Clouds: Overcast
Visibility: 6 miles , 10 km
Cloud details: Partly cloudy 610 m
Mostly cloudy 945 m
Overcast 1219 m
2020/07/14 05:50 EGCC 140550Z AUTO 30004KT 260V330 9999 SCT020 BKN031 OVC040 13/10 Q1018 NOSIG
EGXE - Leeming RAF, United Kingdom
Distance from station: N 40mi, 65km
Updated: 14/07/2020 05:50
Mostly cloudy
Mostly cloudy
 Wind from W
Wind: W 5 mph , 7 km/h
Temperature: 12°C
Dew Point: 8°C
Humidity: 77%
Barometer: 1016 hPa
Clouds: Mostly cloudy
Visibility: 6 miles , 10 km
Cloud details: Few Clouds 853 m
Mostly cloudy 7620 m
2020/07/14 05:50 EGXE 140550Z 28004KT 9999 FEW028 BKN250 12/08 Q1016 RMK BLU